Time;durP1;ratioP1;P1;durP2;ratioP2;P2;SDS_P1;SDS_P2;PMS_P1;PMS_P2;Temp;Humidity;BMP_temperature;BMP_pressure;BME280_temperature;BME280_humidity;BME280_pressure;Samples;Min_cycle;Max_cycle;Signal;HPM_P1;HPM_P2
2023/01/30 00:00:57;;;;;;;46.33;31.00;;;5.50;99.90;;;;;;4896273;29;20043;-70
2023/01/30 00:03:24;;;;;;;67.47;45.30;;;5.50;99.90;;;;;;4898446;29;20055;-70
2023/01/30 00:05:51;;;;;;;53.45;36.58;;;5.50;99.90;;;;;;4908050;29;20043;-70
2023/01/30 00:08:17;;;;;;;51.58;34.70;;;5.50;99.90;;;;;;4878084;29;20044;-69
2023/01/30 00:10:45;;;;;;;55.65;35.53;;;5.50;99.90;;;;;;4910590;29;20036;-70
2023/01/30 00:13:13;;;;;;;54.53;33.88;;;5.60;99.90;;;;;;4902414;29;20042;-70
2023/01/30 00:15:40;;;;;;;55.47;36.78;;;5.60;99.90;;;;;;4893265;29;20043;-70
2023/01/30 00:18:06;;;;;;;48.33;33.30;;;5.50;99.90;;;;;;4916452;29;20040;-72
2023/01/30 00:20:33;;;;;;;50.55;35.33;;;5.60;99.90;;;;;;4900447;29;20036;-70
2023/01/30 00:22:59;;;;;;;56.30;35.10;;;5.60;99.90;;;;;;4882128;29;20051;-70
2023/01/30 00:25:26;;;;;;;58.58;38.28;;;5.60;99.90;;;;;;4908546;29;20043;-70
2023/01/30 00:27:53;;;;;;;68.97;43.83;;;5.60;99.90;;;;;;4911061;29;20407;-71
2023/01/30 00:30:19;;;;;;;57.35;37.90;;;5.60;99.90;;;;;;4888102;29;20036;-69
2023/01/30 00:32:45;;;;;;;64.38;42.85;;;5.60;99.90;;;;;;4880068;29;20045;-70
2023/01/30 00:35:12;;;;;;;59.53;40.22;;;5.60;99.90;;;;;;4892507;29;20059;-70
2023/01/30 00:37:38;;;;;;;53.47;35.53;;;5.60;99.90;;;;;;4877475;29;20052;-70
2023/01/30 00:40:05;;;;;;;56.63;37.92;;;5.70;99.90;;;;;;4886638;29;20040;-71
2023/01/30 00:48:32;;;;;;;62.03;40.67;;;5.70;99.90;;;;;;4896788;29;20462;-70
2023/01/30 00:52:26;;;;;;;77.00;47.22;;;5.70;99.90;;;;;;4889387;29;20044;-71
2023/01/30 00:54:41;;;;;;;52.55;36.40;;;5.70;99.90;;;;;;4871540;29;20518;-70
2023/01/30 00:57:33;;;;;;;63.05;40.28;;;5.70;99.90;;;;;;4885500;29;20052;-71
2023/01/30 00:59:59;;;;;;;64.50;40.70;;;5.70;99.90;;;;;;4887897;29;20051;-71
2023/01/30 01:02:26;;;;;;;70.20;44.38;;;5.70;99.90;;;;;;4893246;29;20032;-71
2023/01/30 01:04:53;;;;;;;61.65;41.17;;;5.70;99.90;;;;;;4892047;29;20042;-70
2023/01/30 01:07:27;;;;;;;57.13;38.70;;;5.80;99.90;;;;;;4911964;29;20051;-71
2023/01/30 01:09:56;;;;;;;69.43;44.03;;;5.80;99.90;;;;;;4891630;29;20034;-72
2023/01/30 01:12:22;;;;;;;60.85;39.00;;;5.80;99.90;;;;;;4905524;29;20043;-71
2023/01/30 01:14:49;;;;;;;54.63;36.60;;;5.80;99.90;;;;;;4888812;29;20043;-70
2023/01/30 01:17:21;;;;;;;71.45;43.35;;;5.80;99.90;;;;;;4880180;29;20036;-69
2023/01/30 01:20:06;;;;;;;57.00;37.75;;;5.90;99.90;;;;;;4895975;29;20042;-69
2023/01/30 01:23:01;;;;;;;58.63;38.42;;;5.90;99.90;;;;;;4897506;29;20387;-70
2023/01/30 01:25:28;;;;;;;54.17;37.17;;;5.90;99.90;;;;;;4888785;29;20048;-71
2023/01/30 01:27:54;;;;;;;61.92;39.88;;;5.90;99.90;;;;;;4915566;29;20036;-70
2023/01/30 01:30:21;;;;;;;64.57;41.70;;;5.90;99.90;;;;;;4899543;29;20491;-70
2023/01/30 01:32:47;;;;;;;61.15;37.45;;;5.90;99.90;;;;;;4895299;29;20043;-70
2023/01/30 01:35:13;;;;;;;58.38;40.55;;;5.90;99.90;;;;;;4905762;29;20039;-70
2023/01/30 01:37:40;;;;;;;61.90;41.28;;;6.00;99.90;;;;;;4894017;29;20052;-70
2023/01/30 01:42:52;;;;;;;63.70;40.58;;;6.00;99.90;;;;;;4898338;29;20397;-70
2023/01/30 01:45:22;;;;;;;57.45;39.90;;;6.00;99.90;;;;;;4889378;29;20028;-70
2023/01/30 01:48:14;;;;;;;53.80;38.65;;;6.00;99.90;;;;;;4894372;29;20036;-69
2023/01/30 01:50:45;;;;;;;69.47;44.53;;;6.00;99.90;;;;;;4904487;29;20036;-70
2023/01/30 01:53:15;;;;;;;60.63;40.92;;;6.00;99.90;;;;;;4900729;29;20412;-70
2023/01/30 01:55:45;;;;;;;67.97;45.25;;;6.10;99.90;;;;;;4903340;29;20083;-71
2023/01/30 01:58:28;;;;;;;61.55;42.17;;;6.10;99.90;;;;;;4881964;29;20040;-70
2023/01/30 02:00:58;;;;;;;62.50;41.40;;;6.00;99.90;;;;;;4912713;29;20039;-71
2023/01/30 02:03:27;;;;;;;58.90;37.35;;;6.10;99.90;;;;;;4901697;29;20039;-70
2023/01/30 02:05:59;;;;;;;61.95;41.63;;;6.00;99.90;;;;;;4908411;29;20503;-70
2023/01/30 02:08:32;;;;;;;54.75;39.08;;;6.10;99.90;;;;;;4918191;29;20085;-71
2023/01/30 02:11:23;;;;;;;60.83;40.20;;;6.00;99.90;;;;;;4894222;29;20411;-71
2023/01/30 02:13:49;;;;;;;69.47;43.75;;;6.10;99.90;;;;;;4878336;29;20059;-70
2023/01/30 02:16:17;;;;;;;47.88;34.03;;;6.10;99.90;;;;;;4892850;29;20036;-70
2023/01/30 02:18:50;;;;;;;51.95;35.83;;;6.10;99.90;;;;;;4916779;29;20040;-70
2023/01/30 02:21:43;;;;;;;50.60;34.28;;;6.10;99.90;;;;;;4905743;29;20032;-69
2023/01/30 02:24:30;;;;;;;53.80;36.17;;;6.10;99.90;;;;;;4896766;29;20056;-69
2023/01/30 02:27:13;;;;;;;54.67;34.67;;;6.10;99.90;;;;;;4917032;29;20032;-68
2023/01/30 02:30:17;;;;;;;45.88;32.30;;;6.20;99.90;;;;;;4898144;29;20043;-69
2023/01/30 02:33:14;;;;;;;42.22;31.80;;;6.20;99.90;;;;;;4914047;29;20043;-69
2023/01/30 02:36:02;;;;;;;54.05;35.20;;;6.20;99.90;;;;;;4911733;29;20376;-70
2023/01/30 02:38:43;;;;;;;44.30;31.85;;;6.20;99.90;;;;;;4906051;29;20522;-70
2023/01/30 02:41:35;;;;;;;44.00;29.85;;;6.20;99.90;;;;;;4914186;29;20408;-69
2023/01/30 02:44:15;;;;;;;41.70;31.67;;;6.20;99.90;;;;;;4894896;29;20047;-70
2023/01/30 02:46:47;;;;;;;40.92;28.75;;;6.20;99.90;;;;;;4880865;29;20399;-72
2023/01/30 02:49:22;;;;;;;36.80;25.95;;;6.20;99.90;;;;;;4899525;29;20411;-74
2023/01/30 02:51:50;;;;;;;36.47;25.13;;;6.20;99.90;;;;;;4904097;29;20368;-73
2023/01/30 02:54:16;;;;;;;56.75;34.83;;;6.20;99.90;;;;;;4882077;29;20043;-74
2023/01/30 02:56:51;;;;;;;33.85;23.70;;;6.20;99.90;;;;;;4901181;29;20066;-73
2023/01/30 02:59:23;;;;;;;33.47;20.90;;;6.30;99.90;;;;;;4895170;29;20036;-73
2023/01/30 03:02:09;;;;;;;27.00;18.42;;;6.30;99.90;;;;;;4897481;29;20040;-73
2023/01/30 03:04:57;;;;;;;30.40;21.20;;;6.40;99.90;;;;;;4897360;29;20039;-72
2023/01/30 03:07:36;;;;;;;27.70;16.70;;;6.40;99.90;;;;;;4920826;29;20051;-74
2023/01/30 03:10:45;;;;;;;26.25;17.35;;;6.40;99.90;;;;;;4921803;29;20047;-72
2023/01/30 03:13:21;;;;;;;27.50;18.13;;;6.50;99.90;;;;;;4888639;29;20040;-73
2023/01/30 03:15:53;;;;;;;26.45;17.67;;;6.50;99.90;;;;;;4882180;29;20048;-72
2023/01/30 03:18:20;;;;;;;27.75;16.45;;;6.50;99.90;;;;;;4905502;29;20032;-73
2023/01/30 03:20:46;;;;;;;20.80;15.60;;;6.50;99.90;;;;;;4905187;29;20028;-72
2023/01/30 03:23:13;;;;;;;23.55;15.82;;;6.50;99.90;;;;;;4886692;29;20047;-72
2023/01/30 03:25:42;;;;;;;24.20;16.27;;;6.50;99.90;;;;;;4874355;29;20038;-71
2023/01/30 03:28:11;;;;;;;25.63;18.75;;;6.50;99.90;;;;;;4904497;29;20044;-73
2023/01/30 03:30:38;;;;;;;19.58;14.90;;;6.60;99.90;;;;;;4908848;29;20031;-72
2023/01/30 03:33:09;;;;;;;28.63;16.73;;;6.60;99.90;;;;;;4901488;29;20040;-72
2023/01/30 03:35:37;;;;;;;23.20;15.73;;;6.60;99.90;;;;;;4895079;29;20031;-73
2023/01/30 03:38:04;;;;;;;21.02;13.43;;;6.60;99.90;;;;;;4901919;29;20047;-73
2023/01/30 03:40:30;;;;;;;27.77;18.50;;;6.60;99.90;;;;;;4918454;29;20411;-72
2023/01/30 03:42:58;;;;;;;22.08;12.73;;;6.60;99.90;;;;;;4902985;29;20036;-73
2023/01/30 03:45:24;;;;;;;21.27;12.80;;;6.70;99.90;;;;;;4878076;29;20039;-75
2023/01/30 03:47:51;;;;;;;22.90;13.95;;;6.70;99.90;;;;;;4904181;29;20066;-72
2023/01/30 03:50:17;;;;;;;21.70;15.40;;;6.70;99.90;;;;;;4884003;29;20043;-72
2023/01/30 03:52:45;;;;;;;19.05;11.80;;;6.70;99.90;;;;;;4905131;29;20035;-73
2023/01/30 03:55:14;;;;;;;12.77;10.32;;;6.70;99.90;;;;;;4908108;29;20063;-72
2023/01/30 03:57:41;;;;;;;17.27;11.75;;;6.70;99.90;;;;;;4897747;29;20059;-73
2023/01/30 04:00:09;;;;;;;24.48;16.25;;;6.70;99.90;;;;;;4912148;29;20079;-73
2023/01/30 04:02:42;;;;;;;22.42;13.00;;;6.70;99.90;;;;;;4886332;29;20036;-72
2023/01/30 04:05:10;;;;;;;20.40;11.50;;;6.70;99.90;;;;;;4893362;29;20408;-72
2023/01/30 04:07:40;;;;;;;16.13;12.23;;;6.80;99.90;;;;;;4895534;29;20416;-72
2023/01/30 04:10:09;;;;;;;18.73;12.82;;;6.80;99.90;;;;;;4903267;29;20041;-74
2023/01/30 04:12:36;;;;;;;19.92;13.30;;;6.80;99.90;;;;;;4916833;29;20361;-72
2023/01/30 04:15:03;;;;;;;26.77;11.68;;;6.80;99.90;;;;;;4893485;29;20051;-73
2023/01/30 04:17:43;;;;;;;21.05;12.02;;;6.80;99.90;;;;;;4893638;29;20051;-72
2023/01/30 04:20:28;;;;;;;18.35;11.32;;;6.80;99.90;;;;;;4903541;29;20028;-72
2023/01/30 04:22:56;;;;;;;24.40;14.32;;;6.80;99.90;;;;;;4894191;29;20379;-72
2023/01/30 04:25:24;;;;;;;23.83;12.93;;;6.80;99.90;;;;;;4898720;29;20048;-72
2023/01/30 04:27:52;;;;;;;22.05;13.45;;;6.80;99.90;;;;;;4883482;29;20043;-72
2023/01/30 04:30:22;;;;;;;18.75;11.80;;;6.80;99.90;;;;;;4901858;29;20036;-72
2023/01/30 04:32:53;;;;;;;19.65;12.25;;;6.80;99.90;;;;;;4901688;29;20074;-73
2023/01/30 04:35:20;;;;;;;24.45;14.10;;;6.90;99.90;;;;;;4897029;29;20044;-72
2023/01/30 04:37:47;;;;;;;24.48;14.57;;;6.90;99.90;;;;;;4903624;29;20070;-73
2023/01/30 04:40:18;;;;;;;25.17;13.05;;;6.90;99.90;;;;;;4905379;29;20040;-72
2023/01/30 04:42:44;;;;;;;24.85;13.95;;;6.90;99.90;;;;;;4904218;29;20630;-72
2023/01/30 04:45:46;;;;;;;20.95;12.77;;;6.90;99.90;;;;;;4901140;29;20040;-72
2023/01/30 04:48:13;;;;;;;23.52;13.15;;;6.90;99.90;;;;;;4899042;29;20047;-72
2023/01/30 04:50:42;;;;;;;31.85;15.55;;;6.90;99.90;;;;;;4891900;29;20047;-73
2023/01/30 04:53:09;;;;;;;25.55;12.25;;;6.90;99.90;;;;;;4907392;29;20054;-73
2023/01/30 04:55:36;;;;;;;30.27;15.18;;;6.90;99.90;;;;;;4895198;29;20040;-74
2023/01/30 04:58:02;;;;;;;21.92;11.82;;;6.90;99.90;;;;;;4908432;29;20400;-73
2023/01/30 05:00:29;;;;;;;18.55;10.65;;;6.90;99.90;;;;;;4902115;29;20040;-72
2023/01/30 05:02:59;;;;;;;25.02;13.10;;;6.90;99.90;;;;;;4911568;29;20046;-73
2023/01/30 05:05:27;;;;;;;29.48;12.50;;;7.00;99.90;;;;;;4912035;29;20058;-72
2023/01/30 05:07:53;;;;;;;16.42;9.73;;;7.00;99.90;;;;;;4918859;29;20046;-72
2023/01/30 05:10:20;;;;;;;22.17;11.23;;;6.90;99.90;;;;;;4914634;29;20048;-72
2023/01/30 05:12:46;;;;;;;19.38;9.40;;;7.00;99.90;;;;;;4887981;29;20506;-72
2023/01/30 05:15:13;;;;;;;31.80;12.55;;;7.00;99.90;;;;;;4902930;29;20039;-72
2023/01/30 05:17:40;;;;;;;16.95;8.93;;;7.00;99.90;;;;;;4916969;29;20122;-72
2023/01/30 05:20:08;;;;;;;16.63;8.43;;;7.00;99.90;;;;;;4918324;29;20316;-72
2023/01/30 05:22:35;;;;;;;22.10;8.63;;;7.00;99.90;;;;;;4915838;29;20032;-72
2023/01/30 05:25:01;;;;;;;24.05;8.18;;;7.00;99.90;;;;;;4911406;29;20036;-72
2023/01/30 05:27:27;;;;;;;27.42;9.20;;;7.00;99.90;;;;;;4903031;29;20035;-73
2023/01/30 05:29:54;;;;;;;17.75;7.43;;;7.00;99.90;;;;;;4905592;29;20047;-72
2023/01/30 05:32:20;;;;;;;18.60;7.47;;;7.00;99.90;;;;;;4886097;29;20051;-72
2023/01/30 05:34:48;;;;;;;23.83;7.68;;;7.00;99.90;;;;;;4897142;29;20047;-73
2023/01/30 05:37:14;;;;;;;19.27;6.20;;;7.00;99.90;;;;;;4921861;29;20062;-73
2023/01/30 05:39:41;;;;;;;16.10;5.00;;;7.00;99.90;;;;;;4914555;29;20039;-72
2023/01/30 05:42:07;;;;;;;22.73;6.25;;;7.00;99.90;;;;;;4915220;29;20043;-72
2023/01/30 05:44:33;;;;;;;19.30;5.93;;;7.00;99.90;;;;;;4910265;29;20036;-72
2023/01/30 05:46:59;;;;;;;18.50;5.35;;;7.00;99.90;;;;;;4917394;29;20043;-72
2023/01/30 05:49:26;;;;;;;17.00;4.85;;;7.00;99.90;;;;;;4899989;29;20157;-72
2023/01/30 05:51:52;;;;;;;16.25;4.65;;;7.00;99.90;;;;;;4920583;29;20040;-72
2023/01/30 05:54:18;;;;;;;14.40;3.60;;;7.00;99.90;;;;;;4918238;29;20058;-72
2023/01/30 05:56:50;;;;;;;13.73;4.05;;;7.00;99.90;;;;;;4902427;29;20040;-73
2023/01/30 05:59:19;;;;;;;19.52;4.15;;;7.00;99.90;;;;;;4898998;29;20043;-73
2023/01/30 06:01:46;;;;;;;24.00;4.10;;;7.00;99.90;;;;;;4890139;29;20059;-72
2023/01/30 06:04:12;;;;;;;23.83;4.68;;;7.00;99.90;;;;;;4914231;29;20047;-72
2023/01/30 06:06:39;;;;;;;18.30;4.03;;;6.90;99.90;;;;;;4913476;29;20032;-73
2023/01/30 06:09:05;;;;;;;12.98;3.50;;;6.90;99.90;;;;;;4924391;29;20074;-72
2023/01/30 06:11:31;;;;;;;21.08;4.07;;;6.90;99.90;;;;;;4903700;29;20047;-73
2023/01/30 06:13:57;;;;;;;18.98;3.55;;;6.80;99.90;;;;;;4894658;29;20040;-72
2023/01/30 06:16:24;;;;;;;15.05;2.88;;;6.70;99.90;;;;;;4920738;29;20039;-72
2023/01/30 06:18:50;;;;;;;17.60;2.45;;;6.60;99.90;;;;;;4912945;29;20527;-72
2023/01/30 06:21:16;;;;;;;17.90;2.83;;;6.50;99.90;;;;;;4909581;29;20044;-73
2023/01/30 06:23:43;;;;;;;14.02;2.17;;;6.40;99.90;;;;;;4908810;29;20036;-72
2023/01/30 06:26:09;;;;;;;17.58;2.17;;;6.40;99.90;;;;;;4889067;29;20036;-73
2023/01/30 06:28:36;;;;;;;21.40;2.20;;;6.30;99.90;;;;;;4914892;29;20036;-72
2023/01/30 06:31:05;;;;;;;14.50;2.45;;;6.30;99.90;;;;;;4889451;29;20056;-71
2023/01/30 06:33:31;;;;;;;17.52;3.05;;;6.30;99.90;;;;;;4908765;29;20047;-71
2023/01/30 06:35:57;;;;;;;18.85;2.88;;;6.30;99.90;;;;;;4887433;29;20412;-73
2023/01/30 06:38:24;;;;;;;19.95;3.08;;;6.30;99.90;;;;;;4900453;29;20510;-72
2023/01/30 06:40:50;;;;;;;21.75;2.30;;;6.20;99.90;;;;;;4918860;29;20039;-72
2023/01/30 06:43:17;;;;;;;14.65;2.20;;;6.20;99.90;;;;;;4909864;29;20039;-73
2023/01/30 06:45:43;;;;;;;22.83;3.70;;;6.10;99.90;;;;;;4905922;29;20040;-73
2023/01/30 06:48:09;;;;;;;18.25;2.88;;;6.10;99.90;;;;;;4891780;29;20039;-72
2023/01/30 06:50:36;;;;;;;16.85;2.15;;;6.00;99.90;;;;;;4893331;29;20044;-73
2023/01/30 06:53:04;;;;;;;17.98;2.92;;;5.90;99.90;;;;;;4892004;29;20416;-72
2023/01/30 06:55:34;;;;;;;18.10;2.85;;;5.90;99.90;;;;;;4888671;29;20043;-71
2023/01/30 06:58:05;;;;;;;22.35;2.78;;;5.80;99.90;;;;;;4901276;29;20044;-71
2023/01/30 07:00:33;;;;;;;21.67;2.95;;;5.80;99.90;;;;;;4917811;29;20036;-73
2023/01/30 07:02:59;;;;;;;22.75;3.38;;;5.70;99.90;;;;;;4906712;29;20040;-72
2023/01/30 07:05:27;;;;;;;20.90;2.45;;;5.70;99.90;;;;;;4897406;29;20486;-73
2023/01/30 07:07:54;;;;;;;23.05;2.75;;;5.60;99.90;;;;;;4899389;29;20024;-73
2023/01/30 07:10:20;;;;;;;18.58;2.30;;;5.60;99.90;;;;;;4887582;29;20040;-72
2023/01/30 07:12:46;;;;;;;20.73;2.30;;;5.60;99.90;;;;;;4900389;29;20055;-72
2023/01/30 07:15:13;;;;;;;17.08;3.25;;;5.50;99.90;;;;;;4889878;29;20083;-71
2023/01/30 07:17:40;;;;;;;19.92;2.22;;;5.50;99.90;;;;;;4916850;29;20043;-72
2023/01/30 07:20:08;;;;;;;19.52;2.03;;;5.50;99.90;;;;;;4903381;29;20041;-72
2023/01/30 07:22:35;;;;;;;19.25;2.58;;;5.50;99.90;;;;;;4874534;29;20032;-71
2023/01/30 07:25:01;;;;;;;25.70;2.90;;;5.40;99.90;;;;;;4891166;29;20040;-73
2023/01/30 07:27:27;;;;;;;23.50;2.85;;;5.40;99.90;;;;;;4903108;29;20036;-73
2023/01/30 07:29:54;;;;;;;16.17;1.83;;;5.40;99.90;;;;;;4920229;29;20055;-72
2023/01/30 07:32:20;;;;;;;21.00;2.15;;;5.40;99.90;;;;;;4923035;29;20047;-72
2023/01/30 07:34:47;;;;;;;22.75;2.92;;;5.40;99.90;;;;;;4898123;29;20065;-71
2023/01/30 07:37:14;;;;;;;19.02;3.47;;;5.30;99.90;;;;;;4919241;29;20056;-71
2023/01/30 07:39:41;;;;;;;20.67;2.80;;;5.30;99.90;;;;;;4926967;29;20032;-72
2023/01/30 07:42:07;;;;;;;25.17;2.88;;;5.30;99.90;;;;;;4919046;29;20036;-71
2023/01/30 07:44:34;;;;;;;22.33;3.10;;;5.30;99.90;;;;;;4903120;29;20051;-72
2023/01/30 07:47:00;;;;;;;17.48;2.40;;;5.30;99.90;;;;;;4920286;29;20044;-71
2023/01/30 07:49:27;;;;;;;23.55;3.40;;;5.30;99.90;;;;;;4894056;29;20432;-73
2023/01/30 07:51:53;;;;;;;29.05;4.40;;;5.30;99.90;;;;;;4916494;29;20036;-71
2023/01/30 07:54:19;;;;;;;26.73;2.47;;;5.30;99.90;;;;;;4911718;29;21567;-71
2023/01/30 07:56:45;;;;;;;29.30;4.47;;;5.30;99.90;;;;;;4907543;29;20481;-71
2023/01/30 07:59:12;;;;;;;25.42;3.38;;;5.30;99.90;;;;;;4917147;29;20463;-73
2023/01/30 08:01:38;;;;;;;28.42;2.75;;;5.30;99.90;;;;;;4916459;29;20046;-72
2023/01/30 08:04:04;;;;;;;30.85;3.55;;;5.30;99.90;;;;;;4914922;29;20039;-72
2023/01/30 08:06:31;;;;;;;28.13;3.70;;;5.30;99.90;;;;;;4885975;29;20036;-72
2023/01/30 08:08:57;;;;;;;28.65;3.55;;;5.30;99.90;;;;;;4899982;29;20040;-72
2023/01/30 08:11:23;;;;;;;25.20;2.63;;;5.30;99.90;;;;;;4919790;29;20051;-72
2023/01/30 08:13:49;;;;;;;29.13;3.10;;;5.40;99.90;;;;;;4912949;29;20044;-73
2023/01/30 08:16:16;;;;;;;29.45;3.63;;;5.40;99.90;;;;;;4915879;29;20503;-72
2023/01/30 08:18:43;;;;;;;21.42;2.65;;;5.40;99.90;;;;;;4916926;29;20519;-71
2023/01/30 08:21:10;;;;;;;18.40;2.83;;;5.50;99.90;;;;;;4901441;29;20028;-71
2023/01/30 08:23:36;;;;;;;22.00;3.47;;;5.50;99.90;;;;;;4920639;29;20028;-72
2023/01/30 08:26:07;;;;;;;27.55;3.15;;;5.50;99.90;;;;;;4901457;29;20793;-71
2023/01/30 08:28:34;;;;;;;25.63;3.08;;;5.60;99.90;;;;;;4898632;29;20185;-74
2023/01/30 08:31:00;;;;;;;24.27;2.40;;;5.60;99.90;;;;;;4922274;29;20035;-71
2023/01/30 08:33:27;;;;;;;31.85;5.85;;;5.70;99.90;;;;;;4919240;29;20231;-72
2023/01/30 08:35:54;;;;;;;24.85;3.10;;;5.70;99.90;;;;;;4910969;29;21408;-71
2023/01/30 08:38:21;;;;;;;23.08;2.33;;;5.70;99.90;;;;;;4886571;29;20043;-72
2023/01/30 08:40:47;;;;;;;16.95;2.78;;;5.80;99.90;;;;;;4899876;29;20047;-72
2023/01/30 08:43:13;;;;;;;20.70;2.53;;;5.90;99.90;;;;;;4913793;29;20044;-72
2023/01/30 08:45:39;;;;;;;24.08;2.80;;;5.90;99.90;;;;;;4896837;29;20055;-72
2023/01/30 08:48:06;;;;;;;20.83;2.22;;;5.90;99.90;;;;;;4907643;29;20515;-72
2023/01/30 08:50:33;;;;;;;29.73;3.50;;;5.90;99.90;;;;;;4876909;29;20039;-74
2023/01/30 08:53:08;;;;;;;19.35;1.98;;;6.00;99.90;;;;;;4913467;29;20040;-72
2023/01/30 08:55:35;;;;;;;24.50;2.85;;;6.00;99.90;;;;;;4907722;29;20032;-73
2023/01/30 08:58:01;;;;;;;25.13;3.97;;;6.10;99.90;;;;;;4912578;29;20032;-74
2023/01/30 09:00:28;;;;;;;21.92;2.63;;;6.20;99.90;;;;;;4883100;29;20040;-71
2023/01/30 09:02:56;;;;;;;22.50;2.47;;;6.30;99.90;;;;;;4911900;29;20040;-72
2023/01/30 09:05:23;;;;;;;24.67;2.50;;;6.50;99.90;;;;;;4890899;29;20036;-72
2023/01/30 09:07:50;;;;;;;24.48;3.00;;;6.60;99.90;;;;;;4885520;29;20035;-72
2023/01/30 09:10:17;;;;;;;21.80;2.50;;;6.80;99.90;;;;;;4915765;29;20400;-72
2023/01/30 09:12:43;;;;;;;20.13;2.38;;;6.90;99.90;;;;;;4899670;29;20059;-71
2023/01/30 09:15:10;;;;;;;23.05;2.28;;;6.90;99.90;;;;;;4901433;29;20035;-72
2023/01/30 09:17:37;;;;;;;27.35;4.45;;;6.90;99.90;;;;;;4895949;29;20153;-72
2023/01/30 09:20:07;;;;;;;28.88;3.40;;;6.90;99.90;;;;;;4900203;29;20043;-72
2023/01/30 09:22:34;;;;;;;27.50;3.92;;;7.00;99.90;;;;;;4914331;29;20487;-73
2023/01/30 09:25:00;;;;;;;23.35;2.15;;;7.00;99.90;;;;;;4892811;29;20032;-74
2023/01/30 09:27:26;;;;;;;22.17;2.67;;;7.00;99.90;;;;;;4902190;29;20031;-73
2023/01/30 09:29:53;;;;;;;15.35;1.77;;;7.00;99.90;;;;;;4921565;29;20063;-71
2023/01/30 09:32:19;;;;;;;21.25;2.53;;;7.00;99.90;;;;;;4899074;29;20211;-72
2023/01/30 09:34:46;;;;;;;24.60;2.15;;;7.10;99.90;;;;;;4902854;29;20527;-73
2023/01/30 09:37:12;;;;;;;27.70;3.03;;;7.10;99.90;;;;;;4918634;29;20071;-72
2023/01/30 09:39:38;;;;;;;19.60;3.13;;;7.10;99.90;;;;;;4868304;29;20043;-72
2023/01/30 09:42:04;;;;;;;21.48;3.15;;;7.10;99.90;;;;;;4917529;29;20043;-72
2023/01/30 09:44:58;;;;;;;26.30;2.83;;;7.10;99.90;;;;;;4902447;29;20537;-72
2023/01/30 09:47:47;;;;;;;23.90;2.63;;;7.20;99.90;;;;;;4914070;29;20032;-72
2023/01/30 09:50:34;;;;;;;21.25;2.85;;;7.10;99.90;;;;;;4885853;29;20036;-72
2023/01/30 09:53:39;;;;;;;21.83;3.03;;;7.20;99.90;;;;;;4921928;29;20575;-72
2023/01/30 09:56:06;;;;;;;23.92;2.97;;;7.20;99.90;;;;;;4918899;29;20036;-73
2023/01/30 09:58:47;;;;;;;24.00;3.25;;;7.20;99.90;;;;;;4897452;29;20423;-72
2023/01/30 10:01:35;;;;;;;19.38;2.58;;;7.20;99.90;;;;;;4902141;29;20036;-72
2023/01/30 10:04:10;;;;;;;18.67;2.13;;;7.30;99.90;;;;;;4899754;29;20040;-73
2023/01/30 10:06:47;;;;;;;24.80;3.55;;;7.30;99.90;;;;;;4913443;29;20050;-72
2023/01/30 10:09:25;;;;;;;17.15;2.05;;;7.40;99.90;;;;;;4900782;29;20040;-73
2023/01/30 10:12:15;;;;;;;28.35;4.18;;;7.50;99.90;;;;;;4915227;29;20041;-72
2023/01/30 10:14:50;;;;;;;18.63;2.78;;;7.60;99.90;;;;;;4892013;29;20057;-72
2023/01/30 10:17:32;;;;;;;18.35;2.78;;;7.60;99.90;;;;;;4895672;29;20350;-72
2023/01/30 10:20:30;;;;;;;20.05;3.05;;;7.70;99.90;;;;;;4914129;29;20035;-72
2023/01/30 10:23:25;;;;;;;17.63;2.35;;;7.70;99.90;;;;;;4912578;29;20048;-72
2023/01/30 10:25:56;;;;;;;17.90;1.90;;;7.70;99.90;;;;;;4861375;29;20072;-72
2023/01/30 10:28:37;;;;;;;22.38;3.05;;;7.70;99.90;;;;;;4908631;29;20051;-72
2023/01/30 10:31:09;;;;;;;26.65;3.72;;;7.60;99.90;;;;;;4898684;29;20040;-72
2023/01/30 10:33:57;;;;;;;23.63;2.58;;;7.60;99.90;;;;;;4914447;29;20051;-73
2023/01/30 10:36:40;;;;;;;31.70;2.92;;;7.50;99.90;;;;;;4903394;29;20067;-74
2023/01/30 10:39:38;;;;;;;22.35;2.72;;;7.50;99.90;;;;;;4874553;29;20400;-73
2023/01/30 10:42:18;;;;;;;21.83;2.58;;;7.40;99.90;;;;;;4867637;29;20049;-74
2023/01/30 10:44:46;;;;;;;22.90;3.97;;;7.50;99.90;;;;;;4876244;29;20047;-74
2023/01/30 10:47:19;;;;;;;18.67;2.67;;;7.40;99.90;;;;;;4888703;29;20036;-74
2023/01/30 10:49:55;;;;;;;22.30;2.95;;;7.50;99.90;;;;;;4893373;29;20049;-74
2023/01/30 10:52:26;;;;;;;21.80;3.53;;;7.50;99.90;;;;;;4892574;29;20032;-75
2023/01/30 10:55:14;;;;;;;13.68;2.33;;;7.60;99.90;;;;;;4902748;29;20044;-77
2023/01/30 10:57:50;;;;;;;16.20;1.60;;;7.60;99.90;;;;;;4908660;29;20425;-74
2023/01/30 11:00:37;;;;;;;17.05;2.13;;;7.70;99.90;;;;;;4912482;29;20169;-74
2023/01/30 11:03:26;;;;;;;23.88;2.33;;;7.80;99.90;;;;;;4883925;29;20044;-73
2023/01/30 11:05:58;;;;;;;16.25;2.75;;;7.80;99.90;;;;;;4903868;29;20044;-72
2023/01/30 11:08:30;;;;;;;19.75;2.65;;;7.90;99.90;;;;;;4897495;29;20051;-71
2023/01/30 11:10:57;;;;;;;15.27;2.45;;;8.00;99.90;;;;;;4874336;29;20036;-76
2023/01/30 11:13:29;;;;;;;25.00;2.78;;;8.10;99.90;;;;;;4891368;29;20044;-73
2023/01/30 11:15:59;;;;;;;19.88;2.90;;;8.20;99.90;;;;;;4894012;29;20043;-74
2023/01/30 11:18:26;;;;;;;19.73;2.95;;;8.30;99.90;;;;;;4899055;29;20435;-73
2023/01/30 11:21:09;;;;;;;19.88;2.80;;;8.30;99.90;;;;;;4898166;29;20815;-72
2023/01/30 11:23:39;;;;;;;24.70;2.47;;;8.40;99.90;;;;;;4894551;29;20509;-74
2023/01/30 11:26:06;;;;;;;13.45;2.83;;;8.50;99.90;;;;;;4899101;29;20086;-73
2023/01/30 11:28:42;;;;;;;13.82;1.63;;;8.50;99.90;;;;;;4903274;29;20499;-73
2023/01/30 11:31:28;;;;;;;20.35;2.92;;;8.50;99.90;;;;;;4869101;29;20044;-74
2023/01/30 11:34:04;;;;;;;25.88;3.45;;;8.50;99.90;;;;;;4894551;29;20048;-73
2023/01/30 11:36:32;;;;;;;15.45;2.63;;;8.60;99.90;;;;;;4915260;29;20079;-72
2023/01/30 11:39:03;;;;;;;14.27;1.60;;;8.70;99.90;;;;;;4902471;29;20054;-74
2023/01/30 11:41:30;;;;;;;17.15;2.45;;;8.70;99.90;;;;;;4915487;29;20028;-72
2023/01/30 11:44:01;;;;;;;21.38;3.50;;;8.70;99.90;;;;;;4912620;29;21561;-73
2023/01/30 11:46:35;;;;;;;20.50;2.27;;;8.70;99.90;;;;;;4918657;29;20415;-73
2023/01/30 11:49:13;;;;;;;17.60;2.65;;;8.80;99.90;;;;;;4901207;29;20055;-72
2023/01/30 11:51:42;;;;;;;16.48;2.22;;;8.80;99.90;;;;;;4905686;29;20504;-75
2023/01/30 11:54:19;;;;;;;11.45;2.03;;;8.80;99.90;;;;;;4879888;29;20052;-72
2023/01/30 11:56:55;;;;;;;17.30;2.85;;;8.80;99.90;;;;;;4903029;29;20044;-72
2023/01/30 11:59:27;;;;;;;17.25;2.22;;;8.90;99.90;;;;;;4895674;29;20507;-74
2023/01/30 12:02:03;;;;;;;18.58;2.97;;;9.00;99.90;;;;;;4888409;29;20054;-72
2023/01/30 12:04:29;;;;;;;17.35;2.22;;;9.00;99.90;;;;;;4903368;29;20503;-73
2023/01/30 12:07:19;;;;;;;18.60;2.42;;;9.00;99.90;;;;;;4886520;29;20451;-73
2023/01/30 12:09:49;;;;;;;15.90;2.55;;;9.00;99.90;;;;;;4914083;29;20035;-74
2023/01/30 12:12:36;;;;;;;15.85;2.60;;;9.00;99.90;;;;;;4917266;29;20039;-74
2023/01/30 12:15:23;;;;;;;17.45;2.42;;;9.00;99.90;;;;;;4903005;29;20036;-72
2023/01/30 12:18:14;;;;;;;19.60;2.72;;;9.00;99.90;;;;;;4916523;29;20044;-73
2023/01/30 12:21:00;;;;;;;18.05;2.20;;;9.00;99.90;;;;;;4900147;29;20043;-73
2023/01/30 12:23:35;;;;;;;21.80;2.95;;;8.90;99.90;;;;;;4920063;29;20044;-75
2023/01/30 12:26:23;;;;;;;22.27;3.10;;;8.90;99.90;;;;;;4898007;29;20492;-73
2023/01/30 12:29:14;;;;;;;20.52;2.35;;;8.80;99.90;;;;;;4915744;29;20039;-73
2023/01/30 12:31:45;;;;;;;19.73;3.15;;;8.80;99.90;;;;;;4916988;29;20043;-73
2023/01/30 12:34:12;;;;;;;20.85;3.03;;;8.80;99.90;;;;;;4870948;29;20056;-73
2023/01/30 12:37:01;;;;;;;22.75;2.38;;;8.80;99.90;;;;;;4897003;29;20056;-73
2023/01/30 12:40:05;;;;;;;23.98;2.53;;;8.80;99.90;;;;;;4900433;29;20043;-74
2023/01/30 12:42:56;;;;;;;24.25;2.63;;;8.80;99.90;;;;;;4887947;29;20403;-74
2023/01/30 12:45:33;;;;;;;15.27;1.98;;;8.90;99.90;;;;;;4911187;29;20047;-73
2023/01/30 12:48:14;;;;;;;21.33;3.90;;;9.00;99.90;;;;;;4900499;29;20511;-74
2023/01/30 12:51:07;;;;;;;15.07;2.03;;;9.00;99.90;;;;;;4923507;29;20036;-73
2023/01/30 12:53:57;;;;;;;17.48;2.10;;;9.00;99.90;;;;;;4917477;29;20051;-75
2023/01/30 12:56:47;;;;;;;16.52;2.60;;;9.00;99.90;;;;;;4900509;29;20054;-74
2023/01/30 12:59:21;;;;;;;22.13;2.58;;;8.90;99.90;;;;;;4875614;29;20048;-74
2023/01/30 13:02:12;;;;;;;22.27;2.88;;;8.90;99.90;;;;;;4917929;29;20043;-74
2023/01/30 13:04:54;;;;;;;17.13;2.92;;;8.90;99.90;;;;;;4908008;29;20411;-74
2023/01/30 13:07:49;;;;;;;17.48;2.65;;;8.90;99.90;;;;;;4909212;29;20047;-74
2023/01/30 13:10:38;;;;;;;18.75;1.90;;;8.90;99.90;;;;;;4884401;29;20495;-73
2023/01/30 13:13:24;;;;;;;16.33;2.38;;;8.80;99.90;;;;;;4898041;29;20055;-73
2023/01/30 13:15:50;;;;;;;15.98;2.15;;;8.70;99.90;;;;;;4912498;29;20507;-73
2023/01/30 13:18:16;;;;;;;21.40;3.15;;;8.60;99.90;;;;;;4916776;29;20040;-73